sensor_id;sensor_type;location;lat;lon;timestamp;temperature;humidity
18998;DHT22;9632;51.018;4.284;2023-05-16T00:00:13;11.70;99.90
18998;DHT22;9632;51.018;4.284;2023-05-16T00:02:40;11.60;99.90
18998;DHT22;9632;51.018;4.284;2023-05-16T00:05:06;11.70;99.90
18998;DHT22;9632;51.018;4.284;2023-05-16T00:07:33;11.60;99.90
18998;DHT22;9632;51.018;4.284;2023-05-16T00:09:59;11.60;99.90
18998;DHT22;9632;51.018;4.284;2023-05-16T00:12:26;11.50;99.90
18998;DHT22;9632;51.018;4.284;2023-05-16T00:14:52;11.50;99.90
18998;DHT22;9632;51.018;4.284;2023-05-16T00:17:18;11.50;99.90
18998;DHT22;9632;51.018;4.284;2023-05-16T00:19:47;11.50;99.90
18998;DHT22;9632;51.018;4.284;2023-05-16T00:22:14;11.40;99.90
18998;DHT22;9632;51.018;4.284;2023-05-16T00:24:40;11.50;99.90
18998;DHT22;9632;51.018;4.284;2023-05-16T00:27:06;11.50;99.90
18998;DHT22;9632;51.018;4.284;2023-05-16T00:29:35;11.50;99.90
18998;DHT22;9632;51.018;4.284;2023-05-16T00:32:01;11.40;99.90
18998;DHT22;9632;51.018;4.284;2023-05-16T00:34:26;11.40;99.90
18998;DHT22;9632;51.018;4.284;2023-05-16T00:36:53;11.40;99.90
18998;DHT22;9632;51.018;4.284;2023-05-16T00:39:18;11.40;99.90
18998;DHT22;9632;51.018;4.284;2023-05-16T00:41:45;11.30;99.90
18998;DHT22;9632;51.018;4.284;2023-05-16T00:44:10;11.30;99.90
18998;DHT22;9632;51.018;4.284;2023-05-16T00:46:36;11.30;99.90
18998;DHT22;9632;51.018;4.284;2023-05-16T00:49:02;11.30;99.90
18998;DHT22;9632;51.018;4.284;2023-05-16T00:51:28;11.30;99.90
18998;DHT22;9632;51.018;4.284;2023-05-16T00:53:55;11.20;99.90
18998;DHT22;9632;51.018;4.284;2023-05-16T00:56:21;11.30;99.90
18998;DHT22;9632;51.018;4.284;2023-05-16T00:58:48;11.20;99.90
18998;DHT22;9632;51.018;4.284;2023-05-16T01:01:14;11.20;99.90
18998;DHT22;9632;51.018;4.284;2023-05-16T01:03:41;11.20;99.90
18998;DHT22;9632;51.018;4.284;2023-05-16T01:06:08;11.20;99.90
18998;DHT22;9632;51.018;4.284;2023-05-16T01:08:34;11.10;99.90
18998;DHT22;9632;51.018;4.284;2023-05-16T01:16:32;11.10;99.90
18998;DHT22;9632;51.018;4.284;2023-05-16T01:19:13;11.10;99.90
18998;DHT22;9632;51.018;4.284;2023-05-16T01:27:29;11.00;99.90
18998;DHT22;9632;51.018;4.284;2023-05-16T01:29:56;11.00;99.90
18998;DHT22;9632;51.018;4.284;2023-05-16T01:32:21;11.00;99.90
18998;DHT22;9632;51.018;4.284;2023-05-16T01:34:49;11.00;99.90
18998;DHT22;9632;51.018;4.284;2023-05-16T01:37:29;10.90;99.90
18998;DHT22;9632;51.018;4.284;2023-05-16T01:40:07;10.90;99.90
18998;DHT22;9632;51.018;4.284;2023-05-16T01:42:38;10.90;99.90
18998;DHT22;9632;51.018;4.284;2023-05-16T01:45:46;10.90;99.90
18998;DHT22;9632;51.018;4.284;2023-05-16T01:48:21;10.80;99.90
18998;DHT22;9632;51.018;4.284;2023-05-16T01:50:54;10.80;99.90
18998;DHT22;9632;51.018;4.284;2023-05-16T01:53:39;10.80;99.90
18998;DHT22;9632;51.018;4.284;2023-05-16T01:56:08;10.80;99.90
18998;DHT22;9632;51.018;4.284;2023-05-16T01:58:36;10.80;99.90
18998;DHT22;9632;51.018;4.284;2023-05-16T02:01:04;10.70;99.90
18998;DHT22;9632;51.018;4.284;2023-05-16T02:03:30;10.70;99.90
18998;DHT22;9632;51.018;4.284;2023-05-16T02:05:56;10.70;99.90
18998;DHT22;9632;51.018;4.284;2023-05-16T02:08:23;10.60;99.90
18998;DHT22;9632;51.018;4.284;2023-05-16T02:10:49;10.60;99.90
18998;DHT22;9632;51.018;4.284;2023-05-16T02:13:15;10.50;99.90
18998;DHT22;9632;51.018;4.284;2023-05-16T02:15:41;10.50;99.90
18998;DHT22;9632;51.018;4.284;2023-05-16T02:18:07;10.50;99.90
18998;DHT22;9632;51.018;4.284;2023-05-16T02:20:34;10.40;99.90
18998;DHT22;9632;51.018;4.284;2023-05-16T02:22:59;10.30;99.90
18998;DHT22;9632;51.018;4.284;2023-05-16T02:25:25;10.30;99.90
18998;DHT22;9632;51.018;4.284;2023-05-16T02:27:51;10.30;99.90
18998;DHT22;9632;51.018;4.284;2023-05-16T02:30:16;10.20;99.90
18998;DHT22;9632;51.018;4.284;2023-05-16T02:32:42;10.20;99.90
18998;DHT22;9632;51.018;4.284;2023-05-16T02:35:10;10.20;99.90
18998;DHT22;9632;51.018;4.284;2023-05-16T02:37:36;10.20;99.90
18998;DHT22;9632;51.018;4.284;2023-05-16T02:40:02;10.10;99.90
18998;DHT22;9632;51.018;4.284;2023-05-16T02:42:30;10.10;99.90
18998;DHT22;9632;51.018;4.284;2023-05-16T02:44:56;10.10;99.90
18998;DHT22;9632;51.018;4.284;2023-05-16T02:47:22;10.00;99.90
18998;DHT22;9632;51.018;4.284;2023-05-16T02:49:48;10.00;99.90
18998;DHT22;9632;51.018;4.284;2023-05-16T02:52:13;10.00;99.90
18998;DHT22;9632;51.018;4.284;2023-05-16T02:54:39;10.00;99.90
18998;DHT22;9632;51.018;4.284;2023-05-16T02:57:05;10.00;99.90
18998;DHT22;9632;51.018;4.284;2023-05-16T02:59:31;9.90;99.90
18998;DHT22;9632;51.018;4.284;2023-05-16T03:01:56;9.90;99.90
18998;DHT22;9632;51.018;4.284;2023-05-16T03:04:22;9.90;99.90
18998;DHT22;9632;51.018;4.284;2023-05-16T03:06:48;9.90;99.90
18998;DHT22;9632;51.018;4.284;2023-05-16T03:09:15;9.80;99.90
18998;DHT22;9632;51.018;4.284;2023-05-16T03:11:41;9.90;99.90
18998;DHT22;9632;51.018;4.284;2023-05-16T03:14:07;9.80;99.90
18998;DHT22;9632;51.018;4.284;2023-05-16T03:16:32;9.80;99.90
18998;DHT22;9632;51.018;4.284;2023-05-16T03:18:58;9.80;99.90
18998;DHT22;9632;51.018;4.284;2023-05-16T03:21:24;9.80;99.90
18998;DHT22;9632;51.018;4.284;2023-05-16T03:23:50;9.80;99.90
18998;DHT22;9632;51.018;4.284;2023-05-16T03:26:15;9.80;99.90
18998;DHT22;9632;51.018;4.284;2023-05-16T03:28:41;9.80;99.90
18998;DHT22;9632;51.018;4.284;2023-05-16T03:31:07;9.80;99.90
18998;DHT22;9632;51.018;4.284;2023-05-16T03:33:32;9.80;99.90
18998;DHT22;9632;51.018;4.284;2023-05-16T03:35:58;9.80;99.90
18998;DHT22;9632;51.018;4.284;2023-05-16T03:38:24;9.80;99.90
18998;DHT22;9632;51.018;4.284;2023-05-16T03:40:49;9.80;99.90
18998;DHT22;9632;51.018;4.284;2023-05-16T03:43:15;9.80;99.90
18998;DHT22;9632;51.018;4.284;2023-05-16T03:45:41;9.70;99.90
18998;DHT22;9632;51.018;4.284;2023-05-16T03:48:08;9.70;99.90
18998;DHT22;9632;51.018;4.284;2023-05-16T03:50:34;9.70;99.90
18998;DHT22;9632;51.018;4.284;2023-05-16T03:53:01;9.70;99.90
18998;DHT22;9632;51.018;4.284;2023-05-16T03:55:28;9.70;99.90
18998;DHT22;9632;51.018;4.284;2023-05-16T03:57:55;9.70;99.90
18998;DHT22;9632;51.018;4.284;2023-05-16T04:00:21;9.70;99.90
18998;DHT22;9632;51.018;4.284;2023-05-16T04:02:47;9.60;99.90
18998;DHT22;9632;51.018;4.284;2023-05-16T04:05:12;9.70;99.90
18998;DHT22;9632;51.018;4.284;2023-05-16T04:07:39;9.70;99.90
18998;DHT22;9632;51.018;4.284;2023-05-16T04:10:05;9.60;99.90
18998;DHT22;9632;51.018;4.284;2023-05-16T04:12:31;9.70;99.90
18998;DHT22;9632;51.018;4.284;2023-05-16T04:14:57;9.70;99.90
18998;DHT22;9632;51.018;4.284;2023-05-16T04:17:22;9.70;99.90
18998;DHT22;9632;51.018;4.284;2023-05-16T04:19:48;9.70;99.90
18998;DHT22;9632;51.018;4.284;2023-05-16T04:22:14;9.70;99.90
18998;DHT22;9632;51.018;4.284;2023-05-16T04:24:39;9.80;99.90
18998;DHT22;9632;51.018;4.284;2023-05-16T04:27:05;9.80;99.90
18998;DHT22;9632;51.018;4.284;2023-05-16T04:29:36;9.90;99.90
18998;DHT22;9632;51.018;4.284;2023-05-16T04:32:01;10.00;99.90
18998;DHT22;9632;51.018;4.284;2023-05-16T04:34:28;10.00;99.90
18998;DHT22;9632;51.018;4.284;2023-05-16T04:36:53;10.10;99.90
18998;DHT22;9632;51.018;4.284;2023-05-16T04:39:20;10.20;99.90
18998;DHT22;9632;51.018;4.284;2023-05-16T04:41:45;10.30;99.90
18998;DHT22;9632;51.018;4.284;2023-05-16T04:44:11;10.40;99.90
18998;DHT22;9632;51.018;4.284;2023-05-16T04:46:37;10.50;99.90
18998;DHT22;9632;51.018;4.284;2023-05-16T04:49:02;10.70;99.90
18998;DHT22;9632;51.018;4.284;2023-05-16T04:51:28;10.80;99.90
18998;DHT22;9632;51.018;4.284;2023-05-16T04:53:54;10.90;99.90
18998;DHT22;9632;51.018;4.284;2023-05-16T04:56:20;11.10;99.90
18998;DHT22;9632;51.018;4.284;2023-05-16T04:58:46;11.20;99.90
18998;DHT22;9632;51.018;4.284;2023-05-16T05:01:12;11.40;99.90
18998;DHT22;9632;51.018;4.284;2023-05-16T05:03:38;11.60;99.90
18998;DHT22;9632;51.018;4.284;2023-05-16T05:06:03;11.70;99.90
18998;DHT22;9632;51.018;4.284;2023-05-16T05:08:29;11.90;99.90
18998;DHT22;9632;51.018;4.284;2023-05-16T05:10:55;11.90;99.90
18998;DHT22;9632;51.018;4.284;2023-05-16T05:13:21;12.00;99.90
18998;DHT22;9632;51.018;4.284;2023-05-16T05:15:47;12.00;99.90
18998;DHT22;9632;51.018;4.284;2023-05-16T05:18:14;11.90;99.90
18998;DHT22;9632;51.018;4.284;2023-05-16T05:20:40;11.90;99.90
18998;DHT22;9632;51.018;4.284;2023-05-16T05:23:06;11.90;99.90
18998;DHT22;9632;51.018;4.284;2023-05-16T05:25:33;11.80;99.90
18998;DHT22;9632;51.018;4.284;2023-05-16T05:28:00;11.80;99.90
18998;DHT22;9632;51.018;4.284;2023-05-16T05:30:25;11.80;99.90
18998;DHT22;9632;51.018;4.284;2023-05-16T05:32:51;11.70;99.90
18998;DHT22;9632;51.018;4.284;2023-05-16T05:35:18;11.80;99.90
18998;DHT22;9632;51.018;4.284;2023-05-16T05:37:43;11.90;99.90
18998;DHT22;9632;51.018;4.284;2023-05-16T05:40:09;12.00;99.90
18998;DHT22;9632;51.018;4.284;2023-05-16T05:42:35;12.10;99.90
18998;DHT22;9632;51.018;4.284;2023-05-16T05:45:01;12.20;99.90
18998;DHT22;9632;51.018;4.284;2023-05-16T05:47:26;12.30;99.90
18998;DHT22;9632;51.018;4.284;2023-05-16T05:49:52;12.50;99.90
18998;DHT22;9632;51.018;4.284;2023-05-16T05:52:18;12.60;99.90
18998;DHT22;9632;51.018;4.284;2023-05-16T05:54:43;12.70;99.90
18998;DHT22;9632;51.018;4.284;2023-05-16T05:57:09;12.70;99.90
18998;DHT22;9632;51.018;4.284;2023-05-16T05:59:35;12.70;99.90
18998;DHT22;9632;51.018;4.284;2023-05-16T06:02:00;12.70;99.90
18998;DHT22;9632;51.018;4.284;2023-05-16T06:04:26;12.80;99.90
18998;DHT22;9632;51.018;4.284;2023-05-16T06:06:52;12.90;99.90
18998;DHT22;9632;51.018;4.284;2023-05-16T06:09:17;13.10;99.90
18998;DHT22;9632;51.018;4.284;2023-05-16T06:11:43;13.30;99.90
18998;DHT22;9632;51.018;4.284;2023-05-16T06:14:10;13.50;99.90
18998;DHT22;9632;51.018;4.284;2023-05-16T06:16:36;13.70;99.90
18998;DHT22;9632;51.018;4.284;2023-05-16T06:19:03;14.00;99.90
18998;DHT22;9632;51.018;4.284;2023-05-16T06:21:29;14.20;99.90
18998;DHT22;9632;51.018;4.284;2023-05-16T06:23:55;14.40;99.90
18998;DHT22;9632;51.018;4.284;2023-05-16T06:26:21;14.60;99.90
18998;DHT22;9632;51.018;4.284;2023-05-16T06:28:47;14.70;99.90
18998;DHT22;9632;51.018;4.284;2023-05-16T06:31:14;14.90;99.90
18998;DHT22;9632;51.018;4.284;2023-05-16T06:33:39;14.90;99.90
18998;DHT22;9632;51.018;4.284;2023-05-16T06:36:05;15.00;99.90
18998;DHT22;9632;51.018;4.284;2023-05-16T06:38:31;15.00;99.90
18998;DHT22;9632;51.018;4.284;2023-05-16T06:40:58;15.00;99.90
18998;DHT22;9632;51.018;4.284;2023-05-16T06:43:24;14.80;99.90
18998;DHT22;9632;51.018;4.284;2023-05-16T06:45:50;14.80;99.90
18998;DHT22;9632;51.018;4.284;2023-05-16T06:48:17;14.70;99.90
18998;DHT22;9632;51.018;4.284;2023-05-16T06:50:47;14.60;99.90
18998;DHT22;9632;51.018;4.284;2023-05-16T06:53:12;14.50;99.90
18998;DHT22;9632;51.018;4.284;2023-05-16T06:55:38;14.50;99.90
18998;DHT22;9632;51.018;4.284;2023-05-16T06:58:04;14.50;99.90
18998;DHT22;9632;51.018;4.284;2023-05-16T07:00:30;14.50;99.90
18998;DHT22;9632;51.018;4.284;2023-05-16T07:02:55;14.50;99.90
18998;DHT22;9632;51.018;4.284;2023-05-16T07:05:21;14.40;99.90
18998;DHT22;9632;51.018;4.284;2023-05-16T07:07:46;14.40;99.90
18998;DHT22;9632;51.018;4.284;2023-05-16T07:10:14;14.30;99.90
18998;DHT22;9632;51.018;4.284;2023-05-16T07:12:41;14.30;99.90
18998;DHT22;9632;51.018;4.284;2023-05-16T07:15:07;14.40;99.90
18998;DHT22;9632;51.018;4.284;2023-05-16T07:17:33;14.40;99.90
18998;DHT22;9632;51.018;4.284;2023-05-16T07:19:59;14.30;99.90
18998;DHT22;9632;51.018;4.284;2023-05-16T07:22:25;14.40;99.90
18998;DHT22;9632;51.018;4.284;2023-05-16T07:24:50;14.50;99.90
18998;DHT22;9632;51.018;4.284;2023-05-16T07:27:18;14.70;99.90
18998;DHT22;9632;51.018;4.284;2023-05-16T07:29:44;14.80;99.90
18998;DHT22;9632;51.018;4.284;2023-05-16T07:32:10;14.90;99.90
18998;DHT22;9632;51.018;4.284;2023-05-16T07:34:36;15.00;99.90
18998;DHT22;9632;51.018;4.284;2023-05-16T07:37:01;15.20;99.90
18998;DHT22;9632;51.018;4.284;2023-05-16T07:39:27;15.30;99.90
18998;DHT22;9632;51.018;4.284;2023-05-16T07:41:53;15.20;99.90
18998;DHT22;9632;51.018;4.284;2023-05-16T07:44:19;15.20;99.90
18998;DHT22;9632;51.018;4.284;2023-05-16T07:46:44;15.30;99.90
18998;DHT22;9632;51.018;4.284;2023-05-16T07:49:10;15.40;99.90
18998;DHT22;9632;51.018;4.284;2023-05-16T07:51:36;15.50;99.90
18998;DHT22;9632;51.018;4.284;2023-05-16T07:54:02;15.70;99.90
18998;DHT22;9632;51.018;4.284;2023-05-16T07:56:27;15.70;99.90
18998;DHT22;9632;51.018;4.284;2023-05-16T07:58:53;15.70;99.90
18998;DHT22;9632;51.018;4.284;2023-05-16T08:01:19;15.60;99.90
18998;DHT22;9632;51.018;4.284;2023-05-16T08:03:48;15.50;99.90
18998;DHT22;9632;51.018;4.284;2023-05-16T08:06:14;15.40;99.90
18998;DHT22;9632;51.018;4.284;2023-05-16T08:08:40;15.30;99.90
18998;DHT22;9632;51.018;4.284;2023-05-16T08:11:11;15.30;99.90
18998;DHT22;9632;51.018;4.284;2023-05-16T08:13:37;15.40;99.90
18998;DHT22;9632;51.018;4.284;2023-05-16T08:16:03;15.50;99.90
18998;DHT22;9632;51.018;4.284;2023-05-16T08:18:29;15.70;99.90
18998;DHT22;9632;51.018;4.284;2023-05-16T08:20:55;15.70;99.90
18998;DHT22;9632;51.018;4.284;2023-05-16T08:23:21;15.70;99.90
18998;DHT22;9632;51.018;4.284;2023-05-16T08:25:46;15.70;99.90
18998;DHT22;9632;51.018;4.284;2023-05-16T08:28:12;15.80;99.90
18998;DHT22;9632;51.018;4.284;2023-05-16T08:30:38;15.90;99.90
18998;DHT22;9632;51.018;4.284;2023-05-16T08:33:04;16.00;99.90
18998;DHT22;9632;51.018;4.284;2023-05-16T08:35:31;16.00;99.90
18998;DHT22;9632;51.018;4.284;2023-05-16T08:37:56;16.00;99.90
18998;DHT22;9632;51.018;4.284;2023-05-16T08:40:25;16.00;99.90
18998;DHT22;9632;51.018;4.284;2023-05-16T08:42:51;16.00;99.90
18998;DHT22;9632;51.018;4.284;2023-05-16T08:45:18;15.90;99.90
18998;DHT22;9632;51.018;4.284;2023-05-16T08:47:44;15.90;99.90
18998;DHT22;9632;51.018;4.284;2023-05-16T08:50:14;15.90;99.90
18998;DHT22;9632;51.018;4.284;2023-05-16T08:52:41;16.10;99.90
18998;DHT22;9632;51.018;4.284;2023-05-16T08:55:09;16.20;99.90
18998;DHT22;9632;51.018;4.284;2023-05-16T08:57:36;16.30;99.90
18998;DHT22;9632;51.018;4.284;2023-05-16T09:00:02;16.30;99.90
18998;DHT22;9632;51.018;4.284;2023-05-16T09:02:32;16.30;99.90
18998;DHT22;9632;51.018;4.284;2023-05-16T09:04:58;16.40;99.90
18998;DHT22;9632;51.018;4.284;2023-05-16T09:07:24;16.40;99.90
18998;DHT22;9632;51.018;4.284;2023-05-16T09:09:50;16.50;99.90
18998;DHT22;9632;51.018;4.284;2023-05-16T09:12:16;16.40;99.90
18998;DHT22;9632;51.018;4.284;2023-05-16T09:14:41;16.40;99.90
18998;DHT22;9632;51.018;4.284;2023-05-16T09:17:08;16.50;99.90
18998;DHT22;9632;51.018;4.284;2023-05-16T09:19:38;16.70;99.90
18998;DHT22;9632;51.018;4.284;2023-05-16T09:22:06;16.90;99.90
18998;DHT22;9632;51.018;4.284;2023-05-16T09:24:37;17.00;99.90
18998;DHT22;9632;51.018;4.284;2023-05-16T09:27:08;17.10;99.90
18998;DHT22;9632;51.018;4.284;2023-05-16T09:29:34;17.20;99.90
18998;DHT22;9632;51.018;4.284;2023-05-16T09:32:13;17.20;99.90
18998;DHT22;9632;51.018;4.284;2023-05-16T09:34:43;17.30;99.90
18998;DHT22;9632;51.018;4.284;2023-05-16T09:37:14;17.30;99.90
18998;DHT22;9632;51.018;4.284;2023-05-16T09:39:51;17.30;99.90
18998;DHT22;9632;51.018;4.284;2023-05-16T09:42:18;17.30;99.90
18998;DHT22;9632;51.018;4.284;2023-05-16T09:44:52;17.40;99.90
18998;DHT22;9632;51.018;4.284;2023-05-16T09:47:19;17.50;99.90
18998;DHT22;9632;51.018;4.284;2023-05-16T09:49:50;17.40;99.90
18998;DHT22;9632;51.018;4.284;2023-05-16T09:52:16;17.30;99.90
18998;DHT22;9632;51.018;4.284;2023-05-16T09:54:42;17.30;99.90
18998;DHT22;9632;51.018;4.284;2023-05-16T09:57:08;17.40;99.90
18998;DHT22;9632;51.018;4.284;2023-05-16T09:59:36;17.50;99.90
18998;DHT22;9632;51.018;4.284;2023-05-16T10:02:07;17.70;99.90
18998;DHT22;9632;51.018;4.284;2023-05-16T10:04:33;17.80;99.90
18998;DHT22;9632;51.018;4.284;2023-05-16T10:07:02;17.90;99.90
18998;DHT22;9632;51.018;4.284;2023-05-16T10:09:31;18.10;99.90
18998;DHT22;9632;51.018;4.284;2023-05-16T10:11:57;18.10;99.90
18998;DHT22;9632;51.018;4.284;2023-05-16T10:14:27;18.10;99.90
18998;DHT22;9632;51.018;4.284;2023-05-16T10:16:55;18.00;99.90
18998;DHT22;9632;51.018;4.284;2023-05-16T10:19:24;18.10;99.90
18998;DHT22;9632;51.018;4.284;2023-05-16T10:21:53;18.00;99.90
18998;DHT22;9632;51.018;4.284;2023-05-16T10:24:30;18.00;99.90
18998;DHT22;9632;51.018;4.284;2023-05-16T10:26:58;18.00;99.90
18998;DHT22;9632;51.018;4.284;2023-05-16T10:29:25;18.10;99.90
18998;DHT22;9632;51.018;4.284;2023-05-16T10:31:51;18.20;99.90
18998;DHT22;9632;51.018;4.284;2023-05-16T10:34:17;18.20;99.90
18998;DHT22;9632;51.018;4.284;2023-05-16T10:36:44;18.20;99.90
18998;DHT22;9632;51.018;4.284;2023-05-16T10:39:11;18.20;99.90
18998;DHT22;9632;51.018;4.284;2023-05-16T10:41:38;18.20;99.90
18998;DHT22;9632;51.018;4.284;2023-05-16T10:44:12;18.30;99.90
18998;DHT22;9632;51.018;4.284;2023-05-16T10:46:39;18.30;99.90
18998;DHT22;9632;51.018;4.284;2023-05-16T10:49:25;18.40;99.90
18998;DHT22;9632;51.018;4.284;2023-05-16T10:52:10;18.40;99.90
18998;DHT22;9632;51.018;4.284;2023-05-16T10:54:40;18.30;99.90
18998;DHT22;9632;51.018;4.284;2023-05-16T10:57:15;18.30;99.90
18998;DHT22;9632;51.018;4.284;2023-05-16T10:59:44;18.30;99.90
18998;DHT22;9632;51.018;4.284;2023-05-16T11:02:40;18.40;99.90
18998;DHT22;9632;51.018;4.284;2023-05-16T11:05:08;18.30;99.90
18998;DHT22;9632;51.018;4.284;2023-05-16T11:07:37;18.50;99.90
18998;DHT22;9632;51.018;4.284;2023-05-16T11:10:09;18.50;99.90
18998;DHT22;9632;51.018;4.284;2023-05-16T11:12:43;18.50;99.90
18998;DHT22;9632;51.018;4.284;2023-05-16T11:15:23;18.50;99.90
18998;DHT22;9632;51.018;4.284;2023-05-16T11:17:50;18.50;99.90
18998;DHT22;9632;51.018;4.284;2023-05-16T11:20:28;18.50;99.90
18998;DHT22;9632;51.018;4.284;2023-05-16T11:23:17;18.60;99.90
18998;DHT22;9632;51.018;4.284;2023-05-16T11:25:53;18.40;99.90
18998;DHT22;9632;51.018;4.284;2023-05-16T11:28:19;18.40;99.90
18998;DHT22;9632;51.018;4.284;2023-05-16T11:30:53;18.40;99.90
18998;DHT22;9632;51.018;4.284;2023-05-16T11:33:21;18.30;99.90
18998;DHT22;9632;51.018;4.284;2023-05-16T11:38:30;18.30;99.90
18998;DHT22;9632;51.018;4.284;2023-05-16T11:41:06;18.20;99.90
18998;DHT22;9632;51.018;4.284;2023-05-16T11:43:37;18.20;99.90
18998;DHT22;9632;51.018;4.284;2023-05-16T11:46:03;18.30;99.90
18998;DHT22;9632;51.018;4.284;2023-05-16T11:48:29;18.40;99.90
18998;DHT22;9632;51.018;4.284;2023-05-16T11:50:55;18.40;99.90
18998;DHT22;9632;51.018;4.284;2023-05-16T11:53:21;18.40;99.90
18998;DHT22;9632;51.018;4.284;2023-05-16T11:55:48;18.40;99.90
18998;DHT22;9632;51.018;4.284;2023-05-16T11:58:17;18.60;99.90
18998;DHT22;9632;51.018;4.284;2023-05-16T12:00:48;18.60;99.90
18998;DHT22;9632;51.018;4.284;2023-05-16T12:03:15;18.50;99.90
18998;DHT22;9632;51.018;4.284;2023-05-16T12:05:54;18.50;99.90
18998;DHT22;9632;51.018;4.284;2023-05-16T12:08:22;18.60;99.90
18998;DHT22;9632;51.018;4.284;2023-05-16T12:10:50;18.60;99.90
18998;DHT22;9632;51.018;4.284;2023-05-16T12:13:20;18.60;99.90
18998;DHT22;9632;51.018;4.284;2023-05-16T12:15:46;18.60;99.90
18998;DHT22;9632;51.018;4.284;2023-05-16T12:18:12;18.60;99.90
18998;DHT22;9632;51.018;4.284;2023-05-16T12:20:39;18.70;99.90
18998;DHT22;9632;51.018;4.284;2023-05-16T12:23:09;18.70;99.90
18998;DHT22;9632;51.018;4.284;2023-05-16T12:25:36;18.60;99.90
18998;DHT22;9632;51.018;4.284;2023-05-16T12:28:06;18.50;99.90
18998;DHT22;9632;51.018;4.284;2023-05-16T12:30:32;18.50;99.90
18998;DHT22;9632;51.018;4.284;2023-05-16T12:35:30;18.50;99.90
18998;DHT22;9632;51.018;4.284;2023-05-16T12:37:55;18.60;99.90
18998;DHT22;9632;51.018;4.284;2023-05-16T12:40:22;18.60;99.90
18998;DHT22;9632;51.018;4.284;2023-05-16T12:42:52;18.60;99.90
18998;DHT22;9632;51.018;4.284;2023-05-16T12:45:18;18.70;99.90
18998;DHT22;9632;51.018;4.284;2023-05-16T12:47:45;18.70;99.90
18998;DHT22;9632;51.018;4.284;2023-05-16T12:50:12;18.70;99.90
18998;DHT22;9632;51.018;4.284;2023-05-16T12:52:58;18.70;99.90
18998;DHT22;9632;51.018;4.284;2023-05-16T12:55:25;18.80;99.90
18998;DHT22;9632;51.018;4.284;2023-05-16T12:57:51;18.80;99.90
18998;DHT22;9632;51.018;4.284;2023-05-16T13:00:19;18.80;99.90
18998;DHT22;9632;51.018;4.284;2023-05-16T13:02:47;18.90;99.90
18998;DHT22;9632;51.018;4.284;2023-05-16T13:05:13;19.00;99.90
18998;DHT22;9632;51.018;4.284;2023-05-16T13:07:38;19.00;99.90
18998;DHT22;9632;51.018;4.284;2023-05-16T13:10:08;18.90;99.90
18998;DHT22;9632;51.018;4.284;2023-05-16T13:12:38;18.90;99.90
18998;DHT22;9632;51.018;4.284;2023-05-16T13:15:06;18.90;99.90
18998;DHT22;9632;51.018;4.284;2023-05-16T13:17:33;18.80;99.90
18998;DHT22;9632;51.018;4.284;2023-05-16T13:19:58;18.80;99.90
18998;DHT22;9632;51.018;4.284;2023-05-16T13:22:24;18.80;99.90
18998;DHT22;9632;51.018;4.284;2023-05-16T13:24:50;18.70;99.90
18998;DHT22;9632;51.018;4.284;2023-05-16T13:27:16;18.70;99.90
18998;DHT22;9632;51.018;4.284;2023-05-16T13:29:42;18.70;99.90
18998;DHT22;9632;51.018;4.284;2023-05-16T13:32:08;18.70;99.90
18998;DHT22;9632;51.018;4.284;2023-05-16T13:34:34;18.70;99.90
18998;DHT22;9632;51.018;4.284;2023-05-16T13:36:59;18.80;99.90
18998;DHT22;9632;51.018;4.284;2023-05-16T13:39:25;18.80;99.90
18998;DHT22;9632;51.018;4.284;2023-05-16T13:41:51;18.70;99.90
18998;DHT22;9632;51.018;4.284;2023-05-16T13:44:17;18.70;99.90
18998;DHT22;9632;51.018;4.284;2023-05-16T13:46:43;18.90;99.90
18998;DHT22;9632;51.018;4.284;2023-05-16T13:49:09;18.80;99.90
18998;DHT22;9632;51.018;4.284;2023-05-16T13:51:35;18.80;99.90
18998;DHT22;9632;51.018;4.284;2023-05-16T13:54:01;18.70;99.90
18998;DHT22;9632;51.018;4.284;2023-05-16T13:56:26;18.70;99.90
18998;DHT22;9632;51.018;4.284;2023-05-16T13:58:52;18.70;99.90
18998;DHT22;9632;51.018;4.284;2023-05-16T14:01:21;18.70;99.90
18998;DHT22;9632;51.018;4.284;2023-05-16T14:03:47;18.70;99.90
18998;DHT22;9632;51.018;4.284;2023-05-16T14:06:13;18.80;99.90
18998;DHT22;9632;51.018;4.284;2023-05-16T14:08:38;18.90;99.90
18998;DHT22;9632;51.018;4.284;2023-05-16T14:11:04;18.90;99.90
18998;DHT22;9632;51.018;4.284;2023-05-16T14:13:30;18.80;99.90
18998;DHT22;9632;51.018;4.284;2023-05-16T14:15:56;18.80;99.90
18998;DHT22;9632;51.018;4.284;2023-05-16T14:18:22;18.80;99.90
18998;DHT22;9632;51.018;4.284;2023-05-16T14:20:47;18.70;99.90
18998;DHT22;9632;51.018;4.284;2023-05-16T14:23:15;18.60;99.90
18998;DHT22;9632;51.018;4.284;2023-05-16T14:25:40;18.50;99.90
18998;DHT22;9632;51.018;4.284;2023-05-16T14:28:06;18.50;99.90
18998;DHT22;9632;51.018;4.284;2023-05-16T14:30:32;18.50;99.90
18998;DHT22;9632;51.018;4.284;2023-05-16T14:32:58;18.50;99.90
18998;DHT22;9632;51.018;4.284;2023-05-16T14:35:24;18.30;99.90
18998;DHT22;9632;51.018;4.284;2023-05-16T14:37:49;18.20;99.90
18998;DHT22;9632;51.018;4.284;2023-05-16T14:40:15;18.20;99.90
18998;DHT22;9632;51.018;4.284;2023-05-16T14:42:41;18.00;99.90
18998;DHT22;9632;51.018;4.284;2023-05-16T14:45:07;18.00;99.90
18998;DHT22;9632;51.018;4.284;2023-05-16T14:47:33;17.90;99.90
18998;DHT22;9632;51.018;4.284;2023-05-16T14:49:58;17.90;99.90
18998;DHT22;9632;51.018;4.284;2023-05-16T14:52:25;17.80;99.90
18998;DHT22;9632;51.018;4.284;2023-05-16T14:54:51;17.70;99.90
18998;DHT22;9632;51.018;4.284;2023-05-16T14:57:16;17.60;99.90
18998;DHT22;9632;51.018;4.284;2023-05-16T14:59:42;17.70;99.90
18998;DHT22;9632;51.018;4.284;2023-05-16T15:02:07;17.60;99.90
18998;DHT22;9632;51.018;4.284;2023-05-16T15:04:33;17.70;99.90
18998;DHT22;9632;51.018;4.284;2023-05-16T15:06:59;17.70;99.90
18998;DHT22;9632;51.018;4.284;2023-05-16T15:09:24;17.90;99.90
18998;DHT22;9632;51.018;4.284;2023-05-16T15:11:59;18.00;99.90
18998;DHT22;9632;51.018;4.284;2023-05-16T15:14:26;18.20;99.90
18998;DHT22;9632;51.018;4.284;2023-05-16T15:16:51;18.20;99.90
18998;DHT22;9632;51.018;4.284;2023-05-16T15:19:17;18.20;99.90
18998;DHT22;9632;51.018;4.284;2023-05-16T15:21:43;18.20;99.90
18998;DHT22;9632;51.018;4.284;2023-05-16T15:24:08;18.20;99.90
18998;DHT22;9632;51.018;4.284;2023-05-16T15:26:38;18.30;99.90
18998;DHT22;9632;51.018;4.284;2023-05-16T15:29:04;18.40;99.90
18998;DHT22;9632;51.018;4.284;2023-05-16T15:31:29;18.40;99.90
18998;DHT22;9632;51.018;4.284;2023-05-16T15:33:56;18.40;99.90
18998;DHT22;9632;51.018;4.284;2023-05-16T15:36:22;18.40;99.90
18998;DHT22;9632;51.018;4.284;2023-05-16T15:38:47;18.40;99.90
18998;DHT22;9632;51.018;4.284;2023-05-16T15:41:13;18.40;99.90
18998;DHT22;9632;51.018;4.284;2023-05-16T15:43:40;18.40;99.90
18998;DHT22;9632;51.018;4.284;2023-05-16T15:46:07;18.30;99.90
18998;DHT22;9632;51.018;4.284;2023-05-16T15:48:37;18.20;99.90
18998;DHT22;9632;51.018;4.284;2023-05-16T15:51:07;18.10;99.90
18998;DHT22;9632;51.018;4.284;2023-05-16T15:53:33;18.00;99.90
18998;DHT22;9632;51.018;4.284;2023-05-16T15:55:59;17.90;99.90
18998;DHT22;9632;51.018;4.284;2023-05-16T15:58:24;17.90;99.90
18998;DHT22;9632;51.018;4.284;2023-05-16T16:00:50;17.80;99.90
18998;DHT22;9632;51.018;4.284;2023-05-16T16:03:16;17.70;99.90